Bristow, Iowa
Current Conditions -  °F | °C
As of 3:55 PM on Monday 20 Oct 2014 (Local Time) from KCCY Reporting Station
Clear Clear  
Wind Chill: 66°   Ceiling: Unl
Heat Index: 66°   Visibility: 10mi
Dew Point: 41°   Wind: 15mph
Humidity: 40%   Direction: 320°NW
Pressure: 29.97"   Gusts: 23mph
Location:  42.77°N, 92.91°W
Report Text: KCCY 202055Z AUTO 32013G20KT 10SM CLR 19/05 A2997 RMK AO2
Loading
Personal Weather Stations






























Interactive Weather Map
Tropical Storm Tracking
New forecast layout! Learn more

10-Day Weather Forecast

Advertisements
Track Severe Weather on mobile